CheckWX is a tool to help pilots better visualize weather data.  It is not intended as a substitute for an official pre-flight weather briefing.

01:04:38 UTC

SLTR TAF
Teniente Av. Jorge Henrich Arauz Airport
Trinidad, Bolivia
TAF SLTR 232200Z 2400/2424 00000KT 9999 SCT012 SCT070 TX32/2420Z TN23 /2410Z BECMG 2412/2414 34009KT SCT017 SCT080 TEMPO 2418/2421 8000 SHRA FEW017 FEW020CB

Feb-24@
00:00 UTC

Feb-24 @ 00:00 UTC

Feb-24@
12:00 UTC

Feb-24 @ 12:00 UTC

TAF SLTR 232200Z 2400/2424 00000KT 9999 SCT012 SCT070 TX32/2420Z TN23 /2410Z
Cloud Levels
  • Scattered at 1,200' AGL
  • Scattered at 7,000' AGL

Feb-24@
12:00 UTC

Feb-24 @ 12:00 UTC

Feb-25@
00:00 UTC

Feb-25 @ 00:00 UTC

BECMG 2412/2414 34009KT SCT017 SCT080

Becoming

Becoming Conditions expected by Sun, Feb 24, 2019 @ 14:00 UTC

Wind
  • 340° at 9 KTS
Cloud Levels
  • Scattered at 1,700' AGL
  • Scattered at 8,000' AGL

Feb-24@
18:00 UTC

Feb-24 @ 18:00 UTC

Feb-24@
21:00 UTC

Feb-24 @ 21:00 UTC

TEMPO 2418/2421 8000 SHRA FEW017 FEW020CB

Temporary

Temporary Changes expected for less than half the time period

Conditions
Rain
Cloud Levels
  • Few at 1,700' AGL
  • Few at 2,000' AGL